sensor_id;sensor_type;location;lat;lon;timestamp;temperature;humidity
44705;DHT22;30431;48.520;9.046;2023-04-22T00:02:20;10.50;99.90
44705;DHT22;30431;48.520;9.046;2023-04-22T00:04:49;10.40;99.90
44705;DHT22;30431;48.520;9.046;2023-04-22T00:07:18;10.40;99.90
44705;DHT22;30431;48.520;9.046;2023-04-22T00:09:45;10.40;99.90
44705;DHT22;30431;48.520;9.046;2023-04-22T00:12:14;10.40;99.90
44705;DHT22;30431;48.520;9.046;2023-04-22T00:14:41;10.30;99.90
44705;DHT22;30431;48.520;9.046;2023-04-22T00:17:08;10.30;99.90
44705;DHT22;30431;48.520;9.046;2023-04-22T00:19:35;10.20;99.90
44705;DHT22;30431;48.520;9.046;2023-04-22T00:22:03;10.20;99.90
44705;DHT22;30431;48.520;9.046;2023-04-22T00:24:32;10.20;99.90
44705;DHT22;30431;48.520;9.046;2023-04-22T00:27:01;10.20;99.90
44705;DHT22;30431;48.520;9.046;2023-04-22T00:29:28;10.20;99.90
44705;DHT22;30431;48.520;9.046;2023-04-22T00:31:55;10.20;99.90
44705;DHT22;30431;48.520;9.046;2023-04-22T00:34:24;10.20;99.90
44705;DHT22;30431;48.520;9.046;2023-04-22T00:36:51;10.10;99.90
44705;DHT22;30431;48.520;9.046;2023-04-22T00:39:20;10.10;99.90
44705;DHT22;30431;48.520;9.046;2023-04-22T00:41:47;10.10;99.90
44705;DHT22;30431;48.520;9.046;2023-04-22T00:44:17;10.00;99.90
44705;DHT22;30431;48.520;9.046;2023-04-22T00:46:44;10.10;99.90
44705;DHT22;30431;48.520;9.046;2023-04-22T00:49:11;10.10;99.90
44705;DHT22;30431;48.520;9.046;2023-04-22T00:51:41;10.00;99.90
44705;DHT22;30431;48.520;9.046;2023-04-22T00:54:11;10.00;99.90
44705;DHT22;30431;48.520;9.046;2023-04-22T00:56:38;10.00;99.90
44705;DHT22;30431;48.520;9.046;2023-04-22T00:59:05;9.90;99.90
44705;DHT22;30431;48.520;9.046;2023-04-22T01:01:32;9.90;99.90
44705;DHT22;30431;48.520;9.046;2023-04-22T01:04:00;9.90;99.90
44705;DHT22;30431;48.520;9.046;2023-04-22T01:06:30;9.80;99.90
44705;DHT22;30431;48.520;9.046;2023-04-22T01:08:59;9.80;99.90
44705;DHT22;30431;48.520;9.046;2023-04-22T01:11:27;9.70;99.90
44705;DHT22;30431;48.520;9.046;2023-04-22T01:13:54;9.70;99.90
44705;DHT22;30431;48.520;9.046;2023-04-22T01:16:26;9.70;99.90
44705;DHT22;30431;48.520;9.046;2023-04-22T01:18:56;9.70;99.90
44705;DHT22;30431;48.520;9.046;2023-04-22T01:21:23;9.60;99.90
44705;DHT22;30431;48.520;9.046;2023-04-22T01:23:54;9.60;99.90
44705;DHT22;30431;48.520;9.046;2023-04-22T01:26:21;9.60;99.90
44705;DHT22;30431;48.520;9.046;2023-04-22T01:28:48;9.60;99.90
44705;DHT22;30431;48.520;9.046;2023-04-22T01:31:15;9.60;99.90
44705;DHT22;30431;48.520;9.046;2023-04-22T01:33:45;9.60;99.90
44705;DHT22;30431;48.520;9.046;2023-04-22T01:36:15;9.50;99.90
44705;DHT22;30431;48.520;9.046;2023-04-22T01:38:42;9.50;99.90
44705;DHT22;30431;48.520;9.046;2023-04-22T01:41:09;9.50;99.90
44705;DHT22;30431;48.520;9.046;2023-04-22T01:43:35;9.50;99.90
44705;DHT22;30431;48.520;9.046;2023-04-22T01:46:03;9.50;99.90
44705;DHT22;30431;48.520;9.046;2023-04-22T01:48:33;9.50;99.90
44705;DHT22;30431;48.520;9.046;2023-04-22T01:51:00;9.40;99.90
44705;DHT22;30431;48.520;9.046;2023-04-22T01:53:27;9.30;99.90
44705;DHT22;30431;48.520;9.046;2023-04-22T01:55:58;9.30;99.90
44705;DHT22;30431;48.520;9.046;2023-04-22T01:58:27;9.20;99.90
44705;DHT22;30431;48.520;9.046;2023-04-22T02:00:55;9.20;99.90
44705;DHT22;30431;48.520;9.046;2023-04-22T02:03:22;9.20;99.90
44705;DHT22;30431;48.520;9.046;2023-04-22T02:05:49;9.10;99.90
44705;DHT22;30431;48.520;9.046;2023-04-22T02:08:17;9.10;99.90
44705;DHT22;30431;48.520;9.046;2023-04-22T02:10:44;9.00;99.90
44705;DHT22;30431;48.520;9.046;2023-04-22T02:13:10;9.00;99.90
44705;DHT22;30431;48.520;9.046;2023-04-22T02:15:37;9.00;99.90
44705;DHT22;30431;48.520;9.046;2023-04-22T02:18:08;8.90;99.90
44705;DHT22;30431;48.520;9.046;2023-04-22T02:20:40;8.90;99.90
44705;DHT22;30431;48.520;9.046;2023-04-22T02:23:08;8.90;99.90
44705;DHT22;30431;48.520;9.046;2023-04-22T02:25:35;8.90;99.90
44705;DHT22;30431;48.520;9.046;2023-04-22T02:28:02;8.90;99.90
44705;DHT22;30431;48.520;9.046;2023-04-22T02:30:29;8.90;99.90
44705;DHT22;30431;48.520;9.046;2023-04-22T02:32:56;8.90;99.90
44705;DHT22;30431;48.520;9.046;2023-04-22T02:35:23;8.80;99.90
44705;DHT22;30431;48.520;9.046;2023-04-22T02:37:53;8.80;99.90
44705;DHT22;30431;48.520;9.046;2023-04-22T02:40:22;8.80;99.90
44705;DHT22;30431;48.520;9.046;2023-04-22T02:42:51;8.80;99.90
44705;DHT22;30431;48.520;9.046;2023-04-22T02:45:19;8.70;99.90
44705;DHT22;30431;48.520;9.046;2023-04-22T02:47:46;8.60;99.90
44705;DHT22;30431;48.520;9.046;2023-04-22T02:50:15;8.50;99.90
44705;DHT22;30431;48.520;9.046;2023-04-22T02:52:42;8.40;99.90
44705;DHT22;30431;48.520;9.046;2023-04-22T02:55:09;8.40;99.90
44705;DHT22;30431;48.520;9.046;2023-04-22T02:57:35;8.30;99.90
44705;DHT22;30431;48.520;9.046;2023-04-22T03:00:03;8.30;99.90
44705;DHT22;30431;48.520;9.046;2023-04-22T03:02:30;8.20;99.90
44705;DHT22;30431;48.520;9.046;2023-04-22T03:05:04;8.10;99.90
44705;DHT22;30431;48.520;9.046;2023-04-22T03:07:33;8.10;99.90
44705;DHT22;30431;48.520;9.046;2023-04-22T03:10:01;8.10;99.90
44705;DHT22;30431;48.520;9.046;2023-04-22T03:12:28;8.00;99.90
44705;DHT22;30431;48.520;9.046;2023-04-22T03:14:55;8.10;99.90
44705;DHT22;30431;48.520;9.046;2023-04-22T03:17:26;8.10;99.90
44705;DHT22;30431;48.520;9.046;2023-04-22T03:19:58;8.20;99.90
44705;DHT22;30431;48.520;9.046;2023-04-22T03:22:25;8.20;99.90
44705;DHT22;30431;48.520;9.046;2023-04-22T03:24:55;8.20;99.90
44705;DHT22;30431;48.520;9.046;2023-04-22T03:27:24;8.20;99.90
44705;DHT22;30431;48.520;9.046;2023-04-22T03:29:50;8.20;99.90
44705;DHT22;30431;48.520;9.046;2023-04-22T03:32:17;8.20;99.90
44705;DHT22;30431;48.520;9.046;2023-04-22T03:34:48;8.20;99.90
44705;DHT22;30431;48.520;9.046;2023-04-22T03:37:18;8.20;99.90
44705;DHT22;30431;48.520;9.046;2023-04-22T03:39:44;8.20;99.90
44705;DHT22;30431;48.520;9.046;2023-04-22T03:42:16;8.30;99.90
44705;DHT22;30431;48.520;9.046;2023-04-22T03:44:44;8.30;99.90
44705;DHT22;30431;48.520;9.046;2023-04-22T03:47:15;8.30;99.90
44705;DHT22;30431;48.520;9.046;2023-04-22T03:49:48;8.20;99.90
44705;DHT22;30431;48.520;9.046;2023-04-22T03:52:15;8.20;99.90
44705;DHT22;30431;48.520;9.046;2023-04-22T03:54:49;8.20;99.90
44705;DHT22;30431;48.520;9.046;2023-04-22T03:57:16;8.20;99.90
44705;DHT22;30431;48.520;9.046;2023-04-22T03:59:43;8.20;99.90
44705;DHT22;30431;48.520;9.046;2023-04-22T04:02:11;8.20;99.90
44705;DHT22;30431;48.520;9.046;2023-04-22T04:04:38;8.10;99.90
44705;DHT22;30431;48.520;9.046;2023-04-22T04:07:06;8.10;99.90
44705;DHT22;30431;48.520;9.046;2023-04-22T04:09:35;8.10;99.90
44705;DHT22;30431;48.520;9.046;2023-04-22T04:12:03;8.00;99.90
44705;DHT22;30431;48.520;9.046;2023-04-22T04:14:34;8.10;99.90
44705;DHT22;30431;48.520;9.046;2023-04-22T04:17:03;8.10;99.90
44705;DHT22;30431;48.520;9.046;2023-04-22T04:19:35;8.00;99.90
44705;DHT22;30431;48.520;9.046;2023-04-22T04:22:04;8.00;99.90
44705;DHT22;30431;48.520;9.046;2023-04-22T04:24:36;8.00;99.90
44705;DHT22;30431;48.520;9.046;2023-04-22T04:27:14;8.00;99.90
44705;DHT22;30431;48.520;9.046;2023-04-22T04:29:48;8.10;99.90
44705;DHT22;30431;48.520;9.046;2023-04-22T04:32:24;8.10;99.90
44705;DHT22;30431;48.520;9.046;2023-04-22T04:34:51;8.10;99.90
44705;DHT22;30431;48.520;9.046;2023-04-22T04:37:20;8.20;99.90
44705;DHT22;30431;48.520;9.046;2023-04-22T04:40:01;8.20;99.90
44705;DHT22;30431;48.520;9.046;2023-04-22T04:42:40;8.30;99.90
44705;DHT22;30431;48.520;9.046;2023-04-22T04:45:13;8.40;99.90
44705;DHT22;30431;48.520;9.046;2023-04-22T04:47:42;8.40;99.90
44705;DHT22;30431;48.520;9.046;2023-04-22T04:50:18;8.50;99.90
44705;DHT22;30431;48.520;9.046;2023-04-22T04:52:48;8.50;99.90
44705;DHT22;30431;48.520;9.046;2023-04-22T04:55:20;8.50;99.90
44705;DHT22;30431;48.520;9.046;2023-04-22T04:57:48;8.50;99.90
44705;DHT22;30431;48.520;9.046;2023-04-22T05:00:15;8.60;99.90
44705;DHT22;30431;48.520;9.046;2023-04-22T05:02:43;8.60;99.90
44705;DHT22;30431;48.520;9.046;2023-04-22T05:05:13;8.70;99.90
44705;DHT22;30431;48.520;9.046;2023-04-22T05:07:42;8.70;99.90
44705;DHT22;30431;48.520;9.046;2023-04-22T05:10:13;8.70;99.90
44705;DHT22;30431;48.520;9.046;2023-04-22T05:12:40;8.70;99.90
44705;DHT22;30431;48.520;9.046;2023-04-22T05:15:13;8.80;99.90
44705;DHT22;30431;48.520;9.046;2023-04-22T05:17:42;8.90;99.90
44705;DHT22;30431;48.520;9.046;2023-04-22T05:20:10;8.90;99.90
44705;DHT22;30431;48.520;9.046;2023-04-22T05:22:38;8.90;99.90
44705;DHT22;30431;48.520;9.046;2023-04-22T05:25:09;8.90;99.90
44705;DHT22;30431;48.520;9.046;2023-04-22T05:27:40;9.00;99.90
44705;DHT22;30431;48.520;9.046;2023-04-22T05:30:11;9.00;99.90
44705;DHT22;30431;48.520;9.046;2023-04-22T05:32:41;9.00;99.90
44705;DHT22;30431;48.520;9.046;2023-04-22T05:35:08;9.00;99.90
44705;DHT22;30431;48.520;9.046;2023-04-22T05:37:40;9.00;99.90
44705;DHT22;30431;48.520;9.046;2023-04-22T05:40:10;9.00;99.90
44705;DHT22;30431;48.520;9.046;2023-04-22T05:42:37;9.10;99.90
44705;DHT22;30431;48.520;9.046;2023-04-22T05:45:04;9.10;99.90
44705;DHT22;30431;48.520;9.046;2023-04-22T05:47:32;9.20;99.90
44705;DHT22;30431;48.520;9.046;2023-04-22T05:49:59;9.20;99.90
44705;DHT22;30431;48.520;9.046;2023-04-22T05:52:46;9.30;99.90
44705;DHT22;30431;48.520;9.046;2023-04-22T05:55:15;9.30;99.90
44705;DHT22;30431;48.520;9.046;2023-04-22T05:57:43;9.50;99.90
44705;DHT22;30431;48.520;9.046;2023-04-22T06:00:36;9.60;99.90
44705;DHT22;30431;48.520;9.046;2023-04-22T06:03:17;9.80;99.90
44705;DHT22;30431;48.520;9.046;2023-04-22T06:05:46;9.90;99.90
44705;DHT22;30431;48.520;9.046;2023-04-22T06:08:13;9.90;99.90
44705;DHT22;30431;48.520;9.046;2023-04-22T06:10:43;10.20;99.90
44705;DHT22;30431;48.520;9.046;2023-04-22T06:13:13;10.40;99.90
44705;DHT22;30431;48.520;9.046;2023-04-22T06:15:42;10.60;99.90
44705;DHT22;30431;48.520;9.046;2023-04-22T06:18:09;10.70;99.90
44705;DHT22;30431;48.520;9.046;2023-04-22T06:20:36;10.90;99.90
44705;DHT22;30431;48.520;9.046;2023-04-22T06:23:05;10.90;99.90
44705;DHT22;30431;48.520;9.046;2023-04-22T06:25:35;11.10;99.90
44705;DHT22;30431;48.520;9.046;2023-04-22T06:28:02;11.10;99.90
44705;DHT22;30431;48.520;9.046;2023-04-22T06:30:32;11.40;99.90
44705;DHT22;30431;48.520;9.046;2023-04-22T06:32:59;11.50;99.90
44705;DHT22;30431;48.520;9.046;2023-04-22T06:35:35;11.80;99.90
44705;DHT22;30431;48.520;9.046;2023-04-22T06:38:01;11.90;99.90
44705;DHT22;30431;48.520;9.046;2023-04-22T06:40:35;12.10;99.90
44705;DHT22;30431;48.520;9.046;2023-04-22T06:43:11;12.20;99.90
44705;DHT22;30431;48.520;9.046;2023-04-22T06:46:01;12.30;99.90
44705;DHT22;30431;48.520;9.046;2023-04-22T06:48:57;12.40;99.90
44705;DHT22;30431;48.520;9.046;2023-04-22T06:51:44;12.40;99.90
44705;DHT22;30431;48.520;9.046;2023-04-22T06:54:14;12.30;99.90
44705;DHT22;30431;48.520;9.046;2023-04-22T06:56:49;12.40;99.90
44705;DHT22;30431;48.520;9.046;2023-04-22T06:59:16;11.90;99.90
44705;DHT22;30431;48.520;9.046;2023-04-22T07:01:45;11.60;99.90
44705;DHT22;30431;48.520;9.046;2023-04-22T07:04:12;11.60;99.90
44705;DHT22;30431;48.520;9.046;2023-04-22T07:06:39;11.70;99.90
44705;DHT22;30431;48.520;9.046;2023-04-22T07:09:06;12.00;99.90
44705;DHT22;30431;48.520;9.046;2023-04-22T07:11:33;12.20;99.90
44705;DHT22;30431;48.520;9.046;2023-04-22T07:14:04;12.30;99.90
44705;DHT22;30431;48.520;9.046;2023-04-22T07:16:31;12.50;99.90
44705;DHT22;30431;48.520;9.046;2023-04-22T07:18:58;12.40;99.90
44705;DHT22;30431;48.520;9.046;2023-04-22T07:21:25;12.70;99.90
44705;DHT22;30431;48.520;9.046;2023-04-22T07:23:51;13.00;99.90
44705;DHT22;30431;48.520;9.046;2023-04-22T07:26:18;13.10;99.90
44705;DHT22;30431;48.520;9.046;2023-04-22T07:28:45;13.00;99.90
44705;DHT22;30431;48.520;9.046;2023-04-22T07:31:12;13.00;99.90
44705;DHT22;30431;48.520;9.046;2023-04-22T07:33:39;13.20;99.90
44705;DHT22;30431;48.520;9.046;2023-04-22T07:36:06;13.40;99.90
44705;DHT22;30431;48.520;9.046;2023-04-22T07:38:35;13.40;99.90
44705;DHT22;30431;48.520;9.046;2023-04-22T07:41:01;13.50;99.90
44705;DHT22;30431;48.520;9.046;2023-04-22T07:43:28;13.70;99.90
44705;DHT22;30431;48.520;9.046;2023-04-22T07:45:55;14.00;99.90
44705;DHT22;30431;48.520;9.046;2023-04-22T07:48:22;14.10;99.90
44705;DHT22;30431;48.520;9.046;2023-04-22T07:50:49;14.10;99.90
44705;DHT22;30431;48.520;9.046;2023-04-22T07:53:19;14.10;99.90
44705;DHT22;30431;48.520;9.046;2023-04-22T07:55:46;14.20;99.90
44705;DHT22;30431;48.520;9.046;2023-04-22T07:58:15;14.10;99.90
44705;DHT22;30431;48.520;9.046;2023-04-22T08:00:42;14.10;99.90
44705;DHT22;30431;48.520;9.046;2023-04-22T08:03:09;14.30;99.90
44705;DHT22;30431;48.520;9.046;2023-04-22T08:05:38;14.60;99.90
44705;DHT22;30431;48.520;9.046;2023-04-22T08:08:05;14.70;99.90
44705;DHT22;30431;48.520;9.046;2023-04-22T08:10:32;14.90;99.90
44705;DHT22;30431;48.520;9.046;2023-04-22T08:12:59;15.00;99.90
44705;DHT22;30431;48.520;9.046;2023-04-22T08:15:29;15.20;99.90
44705;DHT22;30431;48.520;9.046;2023-04-22T08:17:56;15.20;99.90
44705;DHT22;30431;48.520;9.046;2023-04-22T08:20:25;15.00;99.90
44705;DHT22;30431;48.520;9.046;2023-04-22T08:22:52;14.80;99.90
44705;DHT22;30431;48.520;9.046;2023-04-22T08:25:23;14.90;99.90
44705;DHT22;30431;48.520;9.046;2023-04-22T08:27:50;14.90;99.90
44705;DHT22;30431;48.520;9.046;2023-04-22T08:30:17;15.00;99.90
44705;DHT22;30431;48.520;9.046;2023-04-22T08:32:46;14.90;99.90
44705;DHT22;30431;48.520;9.046;2023-04-22T08:35:13;15.10;99.90
44705;DHT22;30431;48.520;9.046;2023-04-22T08:37:40;15.30;99.90
44705;DHT22;30431;48.520;9.046;2023-04-22T08:40:07;15.20;99.90
44705;DHT22;30431;48.520;9.046;2023-04-22T08:42:34;15.30;99.90
44705;DHT22;30431;48.520;9.046;2023-04-22T08:45:02;15.30;99.90
44705;DHT22;30431;48.520;9.046;2023-04-22T08:47:30;15.40;99.90
44705;DHT22;30431;48.520;9.046;2023-04-22T08:50:00;15.50;99.90
44705;DHT22;30431;48.520;9.046;2023-04-22T08:52:28;15.50;99.90
44705;DHT22;30431;48.520;9.046;2023-04-22T08:54:58;15.40;99.90
44705;DHT22;30431;48.520;9.046;2023-04-22T08:57:27;15.60;99.90
44705;DHT22;30431;48.520;9.046;2023-04-22T08:59:55;15.90;99.90
44705;DHT22;30431;48.520;9.046;2023-04-22T09:02:22;16.20;99.90
44705;DHT22;30431;48.520;9.046;2023-04-22T09:04:52;16.30;99.90
44705;DHT22;30431;48.520;9.046;2023-04-22T09:07:29;16.60;99.90
44705;DHT22;30431;48.520;9.046;2023-04-22T09:09:56;16.80;99.90
44705;DHT22;30431;48.520;9.046;2023-04-22T09:12:24;17.00;99.90
44705;DHT22;30431;48.520;9.046;2023-04-22T09:14:54;17.10;99.90
44705;DHT22;30431;48.520;9.046;2023-04-22T09:17:30;17.20;99.90
44705;DHT22;30431;48.520;9.046;2023-04-22T09:20:01;17.10;99.90
44705;DHT22;30431;48.520;9.046;2023-04-22T09:22:36;17.20;98.80
44705;DHT22;30431;48.520;9.046;2023-04-22T09:25:03;17.20;98.10
44705;DHT22;30431;48.520;9.046;2023-04-22T09:27:30;17.30;96.90
44705;DHT22;30431;48.520;9.046;2023-04-22T09:29:57;17.40;96.10
44705;DHT22;30431;48.520;9.046;2023-04-22T09:32:24;17.60;96.60
44705;DHT22;30431;48.520;9.046;2023-04-22T09:34:54;17.80;95.00
44705;DHT22;30431;48.520;9.046;2023-04-22T09:37:24;17.70;94.30
44705;DHT22;30431;48.520;9.046;2023-04-22T09:40:01;17.90;94.30
44705;DHT22;30431;48.520;9.046;2023-04-22T09:42:32;18.20;93.50
44705;DHT22;30431;48.520;9.046;2023-04-22T09:45:12;18.50;92.40
44705;DHT22;30431;48.520;9.046;2023-04-22T09:47:39;18.70;92.40
44705;DHT22;30431;48.520;9.046;2023-04-22T09:50:10;18.80;94.00
44705;DHT22;30431;48.520;9.046;2023-04-22T09:52:36;19.00;93.20
44705;DHT22;30431;48.520;9.046;2023-04-22T09:55:06;19.10;92.20
44705;DHT22;30431;48.520;9.046;2023-04-22T09:57:36;19.20;92.10
44705;DHT22;30431;48.520;9.046;2023-04-22T10:00:07;19.30;91.10
44705;DHT22;30431;48.520;9.046;2023-04-22T10:02:37;19.20;90.30
44705;DHT22;30431;48.520;9.046;2023-04-22T10:05:04;19.00;90.30
44705;DHT22;30431;48.520;9.046;2023-04-22T10:07:31;19.00;90.00
44705;DHT22;30431;48.520;9.046;2023-04-22T10:09:58;19.10;89.10
44705;DHT22;30431;48.520;9.046;2023-04-22T10:12:25;18.90;88.70
44705;DHT22;30431;48.520;9.046;2023-04-22T10:15:04;18.90;88.60
44705;DHT22;30431;48.520;9.046;2023-04-22T10:17:35;19.30;87.50
44705;DHT22;30431;48.520;9.046;2023-04-22T10:20:09;19.40;85.80
44705;DHT22;30431;48.520;9.046;2023-04-22T10:22:40;19.50;85.80
44705;DHT22;30431;48.520;9.046;2023-04-22T10:25:12;19.60;85.50
44705;DHT22;30431;48.520;9.046;2023-04-22T10:27:41;19.80;85.40
44705;DHT22;30431;48.520;9.046;2023-04-22T10:30:27;20.10;85.40
44705;DHT22;30431;48.520;9.046;2023-04-22T10:32:54;20.40;87.50
44705;DHT22;30431;48.520;9.046;2023-04-22T10:35:25;20.60;83.50
44705;DHT22;30431;48.520;9.046;2023-04-22T10:37:52;20.80;79.30
44705;DHT22;30431;48.520;9.046;2023-04-22T10:40:20;21.10;76.40
44705;DHT22;30431;48.520;9.046;2023-04-22T10:45:44;21.50;75.30
44705;DHT22;30431;48.520;9.046;2023-04-22T10:48:11;21.80;71.00
44705;DHT22;30431;48.520;9.046;2023-04-22T10:50:38;22.00;68.10
44705;DHT22;30431;48.520;9.046;2023-04-22T10:55:51;22.50;60.00
44705;DHT22;30431;48.520;9.046;2023-04-22T10:58:19;22.60;57.50
44705;DHT22;30431;48.520;9.046;2023-04-22T11:00:47;22.60;59.20
44705;DHT22;30431;48.520;9.046;2023-04-22T11:03:24;22.40;59.60
44705;DHT22;30431;48.520;9.046;2023-04-22T11:06:11;22.30;57.70
44705;DHT22;30431;48.520;9.046;2023-04-22T11:08:47;22.30;57.60
44705;DHT22;30431;48.520;9.046;2023-04-22T11:11:16;22.20;60.30
44705;DHT22;30431;48.520;9.046;2023-04-22T11:13:48;22.10;53.50
44705;DHT22;30431;48.520;9.046;2023-04-22T11:16:16;22.20;53.10
44705;DHT22;30431;48.520;9.046;2023-04-22T11:18:48;22.30;54.10
44705;DHT22;30431;48.520;9.046;2023-04-22T11:21:17;22.10;53.90
44705;DHT22;30431;48.520;9.046;2023-04-22T11:23:48;22.20;57.70
44705;DHT22;30431;48.520;9.046;2023-04-22T11:26:30;22.20;56.40
44705;DHT22;30431;48.520;9.046;2023-04-22T11:28:58;22.20;52.80
44705;DHT22;30431;48.520;9.046;2023-04-22T11:31:26;22.20;52.40
44705;DHT22;30431;48.520;9.046;2023-04-22T11:33:57;22.20;52.70
44705;DHT22;30431;48.520;9.046;2023-04-22T11:36:24;22.20;53.10
44705;DHT22;30431;48.520;9.046;2023-04-22T11:38:55;22.20;53.10
44705;DHT22;30431;48.520;9.046;2023-04-22T11:41:22;22.20;55.00
44705;DHT22;30431;48.520;9.046;2023-04-22T11:43:50;22.10;53.70
44705;DHT22;30431;48.520;9.046;2023-04-22T11:46:30;22.00;53.20
44705;DHT22;30431;48.520;9.046;2023-04-22T11:49:11;22.00;52.80
44705;DHT22;30431;48.520;9.046;2023-04-22T11:51:56;21.90;51.00
44705;DHT22;30431;48.520;9.046;2023-04-22T11:54:35;21.80;51.60
44705;DHT22;30431;48.520;9.046;2023-04-22T11:57:03;22.00;51.70
44705;DHT22;30431;48.520;9.046;2023-04-22T11:59:31;22.20;51.60
44705;DHT22;30431;48.520;9.046;2023-04-22T12:02:03;22.50;51.80
44705;DHT22;30431;48.520;9.046;2023-04-22T12:04:37;22.50;51.40
44705;DHT22;30431;48.520;9.046;2023-04-22T12:07:05;22.60;51.70
44705;DHT22;30431;48.520;9.046;2023-04-22T12:09:33;22.70;50.30
44705;DHT22;30431;48.520;9.046;2023-04-22T12:12:02;22.80;50.80
44705;DHT22;30431;48.520;9.046;2023-04-22T12:14:36;23.00;50.80
44705;DHT22;30431;48.520;9.046;2023-04-22T12:17:03;23.00;50.70
44705;DHT22;30431;48.520;9.046;2023-04-22T12:19:34;23.30;50.60
44705;DHT22;30431;48.520;9.046;2023-04-22T12:22:01;23.40;50.20
44705;DHT22;30431;48.520;9.046;2023-04-22T12:24:31;23.60;48.90
44705;DHT22;30431;48.520;9.046;2023-04-22T12:27:00;23.40;48.20
44705;DHT22;30431;48.520;9.046;2023-04-22T12:29:29;23.40;50.00
44705;DHT22;30431;48.520;9.046;2023-04-22T12:31:59;23.30;47.50
44705;DHT22;30431;48.520;9.046;2023-04-22T12:34:26;23.30;48.40
44705;DHT22;30431;48.520;9.046;2023-04-22T12:36:56;23.60;48.80
44705;DHT22;30431;48.520;9.046;2023-04-22T12:39:23;23.80;47.80
44705;DHT22;30431;48.520;9.046;2023-04-22T12:41:49;23.70;48.30
44705;DHT22;30431;48.520;9.046;2023-04-22T12:44:19;23.40;46.50
44705;DHT22;30431;48.520;9.046;2023-04-22T12:46:50;23.20;47.90
44705;DHT22;30431;48.520;9.046;2023-04-22T12:49:17;23.30;48.00
44705;DHT22;30431;48.520;9.046;2023-04-22T12:51:44;23.50;47.50
44705;DHT22;30431;48.520;9.046;2023-04-22T12:54:11;23.60;47.20
44705;DHT22;30431;48.520;9.046;2023-04-22T12:56:40;23.70;46.10
44705;DHT22;30431;48.520;9.046;2023-04-22T12:59:09;23.60;46.80
44705;DHT22;30431;48.520;9.046;2023-04-22T13:01:37;23.60;46.90
44705;DHT22;30431;48.520;9.046;2023-04-22T13:04:07;23.40;46.70
44705;DHT22;30431;48.520;9.046;2023-04-22T13:06:34;23.60;46.50
44705;DHT22;30431;48.520;9.046;2023-04-22T13:09:01;23.50;46.40
44705;DHT22;30431;48.520;9.046;2023-04-22T13:11:29;23.40;45.80
44705;DHT22;30431;48.520;9.046;2023-04-22T13:13:56;23.60;45.90
44705;DHT22;30431;48.520;9.046;2023-04-22T13:16:23;23.80;46.00
44705;DHT22;30431;48.520;9.046;2023-04-22T13:18:50;24.10;46.40
44705;DHT22;30431;48.520;9.046;2023-04-22T13:21:17;24.40;44.10
44705;DHT22;30431;48.520;9.046;2023-04-22T13:23:46;24.60;43.40
44705;DHT22;30431;48.520;9.046;2023-04-22T13:26:13;24.80;42.30
44705;DHT22;30431;48.520;9.046;2023-04-22T13:28:41;25.10;42.10
44705;DHT22;30431;48.520;9.046;2023-04-22T13:31:09;25.00;41.70
44705;DHT22;30431;48.520;9.046;2023-04-22T13:33:36;25.50;41.30
44705;DHT22;30431;48.520;9.046;2023-04-22T13:36:05;25.70;41.70
44705;DHT22;30431;48.520;9.046;2023-04-22T13:38:32;25.20;40.20
44705;DHT22;30431;48.520;9.046;2023-04-22T13:40:59;25.10;41.20
44705;DHT22;30431;48.520;9.046;2023-04-22T13:43:33;24.80;42.80
44705;DHT22;30431;48.520;9.046;2023-04-22T13:46:01;24.40;42.30
44705;DHT22;30431;48.520;9.046;2023-04-22T13:48:28;24.10;44.40
44705;DHT22;30431;48.520;9.046;2023-04-22T13:50:55;23.80;46.10
44705;DHT22;30431;48.520;9.046;2023-04-22T13:53:27;23.30;45.80
44705;DHT22;30431;48.520;9.046;2023-04-22T13:55:54;23.10;47.00
44705;DHT22;30431;48.520;9.046;2023-04-22T13:58:21;22.90;48.20
44705;DHT22;30431;48.520;9.046;2023-04-22T14:00:48;22.90;49.10
44705;DHT22;30431;48.520;9.046;2023-04-22T14:03:15;22.90;48.30
44705;DHT22;30431;48.520;9.046;2023-04-22T14:05:42;22.70;45.90
44705;DHT22;30431;48.520;9.046;2023-04-22T14:08:10;22.70;47.30
44705;DHT22;30431;48.520;9.046;2023-04-22T14:10:37;22.90;46.50
44705;DHT22;30431;48.520;9.046;2023-04-22T14:13:04;22.80;47.10
44705;DHT22;30431;48.520;9.046;2023-04-22T14:15:31;22.60;48.30
44705;DHT22;30431;48.520;9.046;2023-04-22T14:18:00;22.30;49.40
44705;DHT22;30431;48.520;9.046;2023-04-22T14:20:27;22.20;50.70
44705;DHT22;30431;48.520;9.046;2023-04-22T14:22:54;22.00;49.80
44705;DHT22;30431;48.520;9.046;2023-04-22T14:25:23;21.80;50.70
44705;DHT22;30431;48.520;9.046;2023-04-22T14:27:52;21.70;50.40
44705;DHT22;30431;48.520;9.046;2023-04-22T14:30:19;21.60;51.10
44705;DHT22;30431;48.520;9.046;2023-04-22T14:32:48;21.50;52.20
44705;DHT22;30431;48.520;9.046;2023-04-22T14:35:15;21.60;51.20
44705;DHT22;30431;48.520;9.046;2023-04-22T14:37:42;21.80;50.70
44705;DHT22;30431;48.520;9.046;2023-04-22T14:40:10;21.80;50.70
44705;DHT22;30431;48.520;9.046;2023-04-22T14:42:38;21.80;51.00
44705;DHT22;30431;48.520;9.046;2023-04-22T14:45:05;21.70;52.50
44705;DHT22;30431;48.520;9.046;2023-04-22T14:47:34;21.70;52.90
44705;DHT22;30431;48.520;9.046;2023-04-22T14:50:01;21.60;53.50
44705;DHT22;30431;48.520;9.046;2023-04-22T14:52:30;21.40;52.80
44705;DHT22;30431;48.520;9.046;2023-04-22T14:55:01;21.40;52.90
44705;DHT22;30431;48.520;9.046;2023-04-22T14:57:48;21.30;52.60
44705;DHT22;30431;48.520;9.046;2023-04-22T15:00:18;21.20;53.10
44705;DHT22;30431;48.520;9.046;2023-04-22T15:02:46;21.20;52.90
44705;DHT22;30431;48.520;9.046;2023-04-22T15:05:14;21.30;52.30
44705;DHT22;30431;48.520;9.046;2023-04-22T15:07:41;21.40;52.00
44705;DHT22;30431;48.520;9.046;2023-04-22T15:10:09;21.50;52.50
44705;DHT22;30431;48.520;9.046;2023-04-22T15:12:36;21.50;53.80
44705;DHT22;30431;48.520;9.046;2023-04-22T15:15:05;21.70;54.70
44705;DHT22;30431;48.520;9.046;2023-04-22T15:17:32;21.90;54.90
44705;DHT22;30431;48.520;9.046;2023-04-22T15:20:00;22.10;55.20
44705;DHT22;30431;48.520;9.046;2023-04-22T15:22:32;22.00;54.40
44705;DHT22;30431;48.520;9.046;2023-04-22T15:24:59;21.90;54.40
44705;DHT22;30431;48.520;9.046;2023-04-22T15:27:27;21.70;54.90
44705;DHT22;30431;48.520;9.046;2023-04-22T15:29:56;21.50;59.50
44705;DHT22;30431;48.520;9.046;2023-04-22T15:32:23;21.70;59.90
44705;DHT22;30431;48.520;9.046;2023-04-22T15:34:50;21.60;58.70
44705;DHT22;30431;48.520;9.046;2023-04-22T15:37:19;21.80;58.90
44705;DHT22;30431;48.520;9.046;2023-04-22T15:39:46;21.70;57.00
44705;DHT22;30431;48.520;9.046;2023-04-22T15:42:13;22.00;56.20
44705;DHT22;30431;48.520;9.046;2023-04-22T15:44:40;22.00;55.60
44705;DHT22;30431;48.520;9.046;2023-04-22T15:47:08;21.90;56.40
44705;DHT22;30431;48.520;9.046;2023-04-22T15:49:37;21.70;56.50
44705;DHT22;30431;48.520;9.046;2023-04-22T15:52:05;21.60;58.20
44705;DHT22;30431;48.520;9.046;2023-04-22T15:54:37;21.40;58.00